createdAt,value
2018-11-04T00:01:00.210Z,2.40
2018-11-04T00:04:24.939Z,2.50
2018-11-04T00:07:50.882Z,2.50
2018-11-04T00:11:15.543Z,2.60
2018-11-04T00:14:40.351Z,2.60
2018-11-04T00:18:05.061Z,2.60
2018-11-04T00:21:29.758Z,2.60
2018-11-04T00:24:54.461Z,2.60
2018-11-04T00:28:19.278Z,2.60
2018-11-04T00:31:43.996Z,2.70
2018-11-04T00:35:09.110Z,2.70
2018-11-04T00:38:33.826Z,2.80
2018-11-04T00:41:58.603Z,2.90
2018-11-04T00:45:23.452Z,2.90
2018-11-04T00:48:48.151Z,2.90
2018-11-04T00:52:12.928Z,2.90
2018-11-04T00:55:37.764Z,2.90
2018-11-04T00:59:02.524Z,2.80
2018-11-04T01:02:27.312Z,2.90
2018-11-04T01:05:52.130Z,2.90
2018-11-04T01:09:17.109Z,2.90
2018-11-04T01:12:42.434Z,2.90
2018-11-04T01:16:07.797Z,2.90
2018-11-04T01:19:32.486Z,2.80
2018-11-04T01:22:57.219Z,2.80
2018-11-04T01:26:21.949Z,2.80
2018-11-04T01:29:46.722Z,2.80
2018-11-04T01:33:11.474Z,2.80
2018-11-04T01:36:36.202Z,2.70
2018-11-04T01:40:00.911Z,2.60
2018-11-04T01:43:25.658Z,2.60
2018-11-04T01:46:50.411Z,2.50
2018-11-04T01:50:15.515Z,2.40
2018-11-04T01:53:40.291Z,2.30
2018-11-04T01:57:05.079Z,2.30
2018-11-04T02:00:29.954Z,2.20
2018-11-04T02:03:54.646Z,2.10
2018-11-04T02:07:19.387Z,2.10
2018-11-04T02:10:44.108Z,2.10
2018-11-04T02:14:08.867Z,2.00
2018-11-04T02:17:33.673Z,2.00
2018-11-04T02:20:58.419Z,2.10
2018-11-04T02:24:23.138Z,2.00
2018-11-04T02:27:47.854Z,2.00
2018-11-04T02:31:12.669Z,2.00
2018-11-04T02:34:37.493Z,2.00
2018-11-04T02:38:02.320Z,1.90
2018-11-04T02:41:27.254Z,1.90
2018-11-04T02:44:52.019Z,1.90
2018-11-04T02:48:16.749Z,2.00
2018-11-04T02:51:41.496Z,1.90
2018-11-04T02:55:06.797Z,1.90
2018-11-04T02:58:31.532Z,1.90
2018-11-04T03:01:56.340Z,1.90
2018-11-04T03:05:21.101Z,1.90
2018-11-04T03:08:45.913Z,2.00
2018-11-04T03:12:10.673Z,1.90
2018-11-04T03:15:35.528Z,1.90
2018-11-04T03:19:00.321Z,1.80
2018-11-04T03:22:25.083Z,2.00
2018-11-04T03:25:49.838Z,2.10
2018-11-04T03:29:14.560Z,2.20
2018-11-04T03:32:39.335Z,2.40
2018-11-04T03:36:04.075Z,2.50
2018-11-04T03:39:28.776Z,2.60
2018-11-04T03:42:53.462Z,2.70
2018-11-04T03:46:18.190Z,2.80
2018-11-04T03:49:42.949Z,2.90
2018-11-04T03:53:08.571Z,2.90
2018-11-04T03:56:33.325Z,2.90
2018-11-04T03:59:58.064Z,3.00
2018-11-04T04:03:22.825Z,3.00
2018-11-04T04:06:47.581Z,2.90
2018-11-04T04:10:12.276Z,2.80
2018-11-04T04:13:36.953Z,2.70
2018-11-04T04:17:01.725Z,2.50
2018-11-04T04:20:26.393Z,2.40
2018-11-04T04:23:51.130Z,2.30
2018-11-04T04:27:15.859Z,2.30
2018-11-04T04:30:40.577Z,2.30
2018-11-04T04:34:05.359Z,2.20
2018-11-04T04:37:30.086Z,2.10
2018-11-04T04:40:54.829Z,2.10
2018-11-04T04:44:19.561Z,2.00
2018-11-04T04:47:44.293Z,2.10
2018-11-04T04:51:09.176Z,2.20
2018-11-04T04:54:33.886Z,2.30
2018-11-04T04:57:58.666Z,2.50
2018-11-04T05:01:23.575Z,2.60
2018-11-04T05:04:48.275Z,2.70
2018-11-04T05:08:13.310Z,2.90
2018-11-04T05:11:38.025Z,3.00
2018-11-04T05:15:02.731Z,3.10
2018-11-04T05:18:27.429Z,3.10
2018-11-04T05:21:52.228Z,3.30
2018-11-04T05:25:16.987Z,3.40
2018-11-04T05:28:41.691Z,3.40
2018-11-04T05:32:08.639Z,3.50
2018-11-04T05:35:33.551Z,3.50
2018-11-04T05:38:58.388Z,3.60
2018-11-04T05:42:23.116Z,3.60
2018-11-04T05:45:47.849Z,3.60
2018-11-04T05:49:14.361Z,3.70
2018-11-04T05:52:39.088Z,3.70
2018-11-04T05:56:06.644Z,3.80
2018-11-04T05:59:31.543Z,3.80
2018-11-04T06:02:56.260Z,3.90
2018-11-04T06:06:21.014Z,4.00
2018-11-04T06:09:45.746Z,4.00
2018-11-04T06:16:44.948Z,4.00
2018-11-04T06:20:11.365Z,4.10
2018-11-04T06:23:39.939Z,4.20
2018-11-04T06:27:04.654Z,4.20
2018-11-04T06:30:29.335Z,4.20
2018-11-04T06:33:54.077Z,4.30
2018-11-04T06:37:18.884Z,4.30
2018-11-04T06:40:43.737Z,4.40
2018-11-04T06:44:09.383Z,4.40
2018-11-04T06:47:34.204Z,4.40
2018-11-04T06:50:59.009Z,4.50
2018-11-04T06:54:23.730Z,4.60
2018-11-04T06:57:48.581Z,4.70
2018-11-04T07:01:13.388Z,4.70
2018-11-04T07:04:38.629Z,4.80
2018-11-04T07:08:04.411Z,4.90
2018-11-04T07:11:29.267Z,4.90
2018-11-04T07:14:54.639Z,5.00
2018-11-04T07:18:20.158Z,5.10
2018-11-04T07:21:45.131Z,5.20
2018-11-04T07:25:10.098Z,5.20
2018-11-04T07:28:34.973Z,5.30
2018-11-04T07:31:59.884Z,5.30
2018-11-04T07:35:24.790Z,5.40
2018-11-04T07:38:49.619Z,5.40
2018-11-04T07:42:14.488Z,5.50
2018-11-04T07:45:39.434Z,5.60
2018-11-04T07:49:05.409Z,5.70
2018-11-04T07:52:30.977Z,5.80
2018-11-04T07:55:55.825Z,5.90
2018-11-04T07:59:21.327Z,6.00
2018-11-04T08:02:46.242Z,6.10
2018-11-04T08:06:11.441Z,6.20
2018-11-04T08:09:36.242Z,6.40
2018-11-04T08:13:01.441Z,6.50
2018-11-04T08:16:26.142Z,6.60
2018-11-04T08:19:50.893Z,6.70
2018-11-04T08:23:15.749Z,6.90
2018-11-04T08:26:40.604Z,7.00
2018-11-04T08:30:06.908Z,7.10
2018-11-04T08:33:31.723Z,7.20
2018-11-04T08:36:56.479Z,7.30
2018-11-04T08:40:21.354Z,7.40
2018-11-04T08:43:46.327Z,7.50
2018-11-04T08:47:11.100Z,7.50
2018-11-04T08:50:35.822Z,7.60
2018-11-04T08:54:00.610Z,7.70
2018-11-04T08:57:25.407Z,7.70
2018-11-04T09:00:50.166Z,7.80
2018-11-04T09:04:15.151Z,7.80
2018-11-04T09:07:40.220Z,7.90
2018-11-04T09:11:06.339Z,8.00
2018-11-04T09:14:31.236Z,8.10
2018-11-04T09:17:56.107Z,8.20
2018-11-04T09:21:20.918Z,8.30
2018-11-04T09:24:45.773Z,8.40
2018-11-04T09:28:10.563Z,8.50
2018-11-04T09:31:35.416Z,8.50
2018-11-04T09:35:00.234Z,8.70
2018-11-04T09:38:24.999Z,8.80
2018-11-04T09:41:49.699Z,9.00
2018-11-04T09:45:14.472Z,9.30
2018-11-04T09:48:39.264Z,9.60
2018-11-04T09:52:04.044Z,9.80
2018-11-04T09:55:28.881Z,10.10
2018-11-04T09:58:53.631Z,10.20
2018-11-04T10:02:18.534Z,10.30
2018-11-04T10:05:43.458Z,10.40
2018-11-04T10:09:10.308Z,10.50
2018-11-04T10:12:35.091Z,10.60
2018-11-04T10:15:59.815Z,10.70
2018-11-04T10:19:24.783Z,10.80
2018-11-04T10:22:49.361Z,10.90
2018-11-04T10:26:14.131Z,10.90
2018-11-04T10:29:38.876Z,11.00
2018-11-04T10:33:03.676Z,11.10
2018-11-04T10:36:28.420Z,11.30
2018-11-04T10:39:53.245Z,11.40
2018-11-04T10:43:18.022Z,11.50
2018-11-04T10:46:42.832Z,11.60
2018-11-04T10:50:11.401Z,11.70
2018-11-04T10:53:36.265Z,11.80
2018-11-04T10:57:01.169Z,11.90
2018-11-04T11:00:31.198Z,12.00
2018-11-04T11:03:56.192Z,11.90
2018-11-04T11:07:21.378Z,12.00
2018-11-04T11:10:52.525Z,12.10
2018-11-04T11:14:17.681Z,12.20
2018-11-04T11:17:42.466Z,12.30
2018-11-04T11:21:07.724Z,12.30
2018-11-04T11:24:33.215Z,12.50
2018-11-04T11:27:57.912Z,12.70
2018-11-04T11:31:22.803Z,13.00
2018-11-04T11:34:47.702Z,13.10
2018-11-04T11:38:12.756Z,13.10
2018-11-04T11:41:37.588Z,13.20
2018-11-04T11:45:02.483Z,13.30
2018-11-04T11:48:27.200Z,13.10
2018-11-04T11:51:51.967Z,13.00
2018-11-04T11:55:16.706Z,13.10
2018-11-04T11:58:41.694Z,13.20
2018-11-04T12:02:06.659Z,13.40
2018-11-04T12:05:31.375Z,13.60
2018-11-04T12:08:56.254Z,13.70
2018-11-04T12:12:22.872Z,13.70
2018-11-04T12:15:48.888Z,13.80
2018-11-04T12:19:14.612Z,13.70
2018-11-04T12:22:39.545Z,13.90
2018-11-04T12:26:04.620Z,14.00
2018-11-04T12:29:29.517Z,14.00
2018-11-04T12:32:54.411Z,13.80
2018-11-04T12:36:19.247Z,13.90
2018-11-04T12:39:44.240Z,13.90
2018-11-04T12:43:09.035Z,14.00
2018-11-04T12:46:33.804Z,14.20
2018-11-04T12:49:59.161Z,14.40
2018-11-04T12:53:24.256Z,14.60
2018-11-04T12:56:49.062Z,14.80
2018-11-04T13:00:15.037Z,14.90
2018-11-04T13:03:39.793Z,14.70
2018-11-04T13:07:04.589Z,14.60
2018-11-04T13:10:29.367Z,14.60
2018-11-04T13:13:54.389Z,14.40
2018-11-04T13:17:19.305Z,14.30
2018-11-04T13:20:44.187Z,14.20
2018-11-04T13:24:09.036Z,14.20
2018-11-04T13:27:33.891Z,14.10
2018-11-04T13:30:58.865Z,14.30
2018-11-04T13:34:23.699Z,14.70
2018-11-04T13:37:48.572Z,15.00
2018-11-04T13:41:13.312Z,15.40
2018-11-04T13:44:38.149Z,15.80
2018-11-04T13:48:02.893Z,16.20
2018-11-04T13:51:27.614Z,16.40
2018-11-04T13:54:52.378Z,16.50
2018-11-04T13:58:17.138Z,16.30
2018-11-04T14:01:41.995Z,17.10
2018-11-04T14:05:08.237Z,17.90
2018-11-04T14:08:33.803Z,18.80
2018-11-04T14:11:59.531Z,18.80
2018-11-04T14:15:24.341Z,19.40
2018-11-04T14:18:49.092Z,19.30
2018-11-04T14:22:13.980Z,19.60
2018-11-04T14:25:38.840Z,19.50
2018-11-04T14:29:03.623Z,18.90
2018-11-04T14:32:28.850Z,18.60
2018-11-04T14:35:53.595Z,18.30
2018-11-04T14:39:20.272Z,18.20
2018-11-04T14:42:46.184Z,18.90
2018-11-04T14:46:15.223Z,19.30
2018-11-04T14:49:40.063Z,19.60
2018-11-04T14:53:05.140Z,19.40
2018-11-04T14:56:30.521Z,19.30
2018-11-04T14:59:55.403Z,18.40
2018-11-04T15:03:20.210Z,17.20
2018-11-04T15:06:45.229Z,15.80
2018-11-04T15:10:12.813Z,14.80
2018-11-04T15:13:37.624Z,14.10
2018-11-04T15:17:02.363Z,13.60
2018-11-04T15:20:27.245Z,13.30
2018-11-04T15:23:52.045Z,13.10
2018-11-04T15:27:16.876Z,12.90
2018-11-04T15:30:41.637Z,12.80
2018-11-04T15:34:06.767Z,12.70
2018-11-04T15:37:31.482Z,12.60
2018-11-04T15:40:56.265Z,12.50
2018-11-04T15:44:21.549Z,12.50
2018-11-04T15:47:46.318Z,12.40
2018-11-04T15:51:11.101Z,12.40
2018-11-04T15:54:36.010Z,12.30
2018-11-04T15:58:00.891Z,12.20
2018-11-04T16:01:25.826Z,12.20
2018-11-04T16:04:50.540Z,12.20
2018-11-04T16:08:18.353Z,12.10
2018-11-04T16:11:43.256Z,12.00
2018-11-04T16:15:11.062Z,11.90
2018-11-04T16:18:35.864Z,11.90
2018-11-04T16:22:01.047Z,11.90
2018-11-04T16:25:25.904Z,11.80
2018-11-04T16:28:50.604Z,11.80
2018-11-04T16:32:15.585Z,11.80
2018-11-04T16:35:40.326Z,11.80
2018-11-04T16:39:06.414Z,11.80
2018-11-04T16:42:31.173Z,11.80
2018-11-04T16:45:55.921Z,11.80
2018-11-04T16:49:20.645Z,11.80
2018-11-04T16:52:45.918Z,11.80
2018-11-04T16:56:10.855Z,11.80
2018-11-04T16:59:35.471Z,11.90
2018-11-04T17:03:00.400Z,11.80
2018-11-04T17:06:25.229Z,11.80
2018-11-04T17:09:50.080Z,11.70
2018-11-04T17:13:14.795Z,11.60
2018-11-04T17:16:39.573Z,11.60
2018-11-04T17:20:04.881Z,11.50
2018-11-04T17:23:29.744Z,11.50
2018-11-04T17:26:54.518Z,11.50
2018-11-04T17:30:19.790Z,11.50
2018-11-04T17:33:44.564Z,11.50
2018-11-04T17:37:10.445Z,11.40
2018-11-04T17:40:35.133Z,11.30
2018-11-04T17:43:59.888Z,11.20
2018-11-04T17:47:24.594Z,11.00
2018-11-04T17:50:51.225Z,10.80
2018-11-04T17:54:16.673Z,10.60
2018-11-04T17:57:41.671Z,10.50
2018-11-04T18:01:06.466Z,10.30
2018-11-04T18:04:31.164Z,10.20
2018-11-04T18:07:56.024Z,10.20
2018-11-04T18:11:20.802Z,10.30
2018-11-04T18:14:45.582Z,10.30
2018-11-04T18:18:10.314Z,10.30
2018-11-04T18:21:35.371Z,10.30
2018-11-04T18:25:00.186Z,10.30
2018-11-04T18:28:24.904Z,10.30
2018-11-04T18:31:49.764Z,10.30
2018-11-04T18:35:14.560Z,10.20
2018-11-04T18:38:39.207Z,10.10
2018-11-04T18:42:03.951Z,9.90
2018-11-04T18:45:28.610Z,9.80
2018-11-04T18:48:53.364Z,9.70
2018-11-04T18:52:18.086Z,9.50
2018-11-04T18:55:42.741Z,9.40
2018-11-04T18:59:07.738Z,9.40
2018-11-04T19:02:32.455Z,9.40
2018-11-04T19:05:57.171Z,9.30
2018-11-04T19:09:21.934Z,9.30
2018-11-04T19:12:46.737Z,9.30
2018-11-04T19:16:11.484Z,9.20
2018-11-04T19:19:36.181Z,9.10
2018-11-04T19:23:00.902Z,9.00
2018-11-04T19:26:25.618Z,9.00
2018-11-04T19:29:50.360Z,9.00
2018-11-04T19:33:15.707Z,9.10
2018-11-04T19:36:40.571Z,9.20
2018-11-04T19:40:07.918Z,9.20
2018-11-04T19:43:32.958Z,9.30
2018-11-04T19:46:57.886Z,9.30
2018-11-04T19:50:23.410Z,9.40
2018-11-04T19:53:48.991Z,9.40
2018-11-04T19:57:15.338Z,9.40
2018-11-04T20:00:40.446Z,9.30
2018-11-04T20:04:07.385Z,9.30
2018-11-04T20:07:33.166Z,9.20
2018-11-04T20:10:57.955Z,9.10
2018-11-04T20:14:24.076Z,9.10
2018-11-04T20:17:50.612Z,8.90
2018-11-04T20:21:15.940Z,8.80
2018-11-04T20:24:46.031Z,8.80
2018-11-04T20:28:19.639Z,8.70
2018-11-04T20:31:49.451Z,8.60
2018-11-04T20:35:15.759Z,8.50
2018-11-04T20:38:46.248Z,8.50
2018-11-04T20:42:12.482Z,8.40
2018-11-04T20:45:38.089Z,8.30
2018-11-04T20:49:08.004Z,8.30
2018-11-04T20:52:33.600Z,8.30
2018-11-04T20:56:04.643Z,8.20
2018-11-04T20:59:29.437Z,8.10
2018-11-04T21:02:54.495Z,8.00
2018-11-04T21:06:21.119Z,7.90
2018-11-04T21:09:47.671Z,7.80
2018-11-04T21:13:13.324Z,7.70
2018-11-04T21:16:39.518Z,7.60
2018-11-04T21:20:05.910Z,7.60
2018-11-04T21:23:31.069Z,7.50
2018-11-04T21:26:56.246Z,7.50
2018-11-04T21:30:20.991Z,7.40
2018-11-04T21:33:45.757Z,7.40
2018-11-04T21:37:10.556Z,7.30
2018-11-04T21:40:35.375Z,7.30
2018-11-04T21:44:00.294Z,7.30
2018-11-04T21:47:24.917Z,7.30
2018-11-04T21:50:49.792Z,7.20
2018-11-04T21:54:14.529Z,7.20
2018-11-04T21:57:39.740Z,7.20
2018-11-04T22:01:04.552Z,7.20
2018-11-04T22:04:29.381Z,7.20
2018-11-04T22:07:54.173Z,7.20
2018-11-04T22:11:18.947Z,7.20
2018-11-04T22:14:43.694Z,7.20
2018-11-04T22:18:08.455Z,7.20
2018-11-04T22:21:33.176Z,7.20
2018-11-04T22:24:57.970Z,7.10
2018-11-04T22:28:22.718Z,7.10
2018-11-04T22:31:47.586Z,7.10
2018-11-04T22:35:12.813Z,7.10
2018-11-04T22:38:37.635Z,7.10
2018-11-04T22:42:02.506Z,7.10
2018-11-04T22:45:27.290Z,7.10
2018-11-04T22:48:52.054Z,7.10
2018-11-04T22:52:16.924Z,7.00
2018-11-04T22:55:41.828Z,7.00
2018-11-04T22:59:07.200Z,6.90
2018-11-04T23:02:32.015Z,6.90
2018-11-04T23:05:57.057Z,6.80
2018-11-04T23:09:21.890Z,6.80
2018-11-04T23:12:46.651Z,6.80
2018-11-04T23:16:11.486Z,6.80
2018-11-04T23:19:36.252Z,6.80
2018-11-04T23:23:01.027Z,6.80
2018-11-04T23:26:25.878Z,6.80
2018-11-04T23:29:50.782Z,6.70
2018-11-04T23:33:15.552Z,6.70
2018-11-04T23:36:40.571Z,6.70
2018-11-04T23:40:05.951Z,6.70
2018-11-04T23:43:30.837Z,6.70
2018-11-04T23:46:55.643Z,6.70
2018-11-04T23:50:20.404Z,6.60
2018-11-04T23:53:45.136Z,6.60
2018-11-04T23:57:10.116Z,6.70
